createdAt,value
2023-05-21T00:01:25.651Z,98398.47
2023-05-21T00:03:53.449Z,98400.34
2023-05-21T00:07:38.307Z,98402.28
2023-05-21T00:10:07.712Z,98397.53
2023-05-21T00:12:35.368Z,98402.00
2023-05-21T00:15:03.567Z,98392.41
2023-05-21T00:17:32.584Z,98390.81
2023-05-21T00:20:02.375Z,98386.78
2023-05-21T00:22:33.389Z,98389.25
2023-05-21T00:25:00.790Z,98394.56
2023-05-21T00:27:30.534Z,98386.59
2023-05-21T00:29:58.104Z,98376.78
2023-05-21T00:32:25.593Z,98379.59
2023-05-21T00:34:52.901Z,98381.41
2023-05-21T00:37:21.832Z,98372.56
2023-05-21T00:39:49.129Z,98362.44
2023-05-21T00:42:18.322Z,98365.91
2023-05-21T00:44:46.503Z,98363.09
2023-05-21T00:47:23.698Z,98365.19
2023-05-21T00:49:53.426Z,98368.53
2023-05-21T00:52:22.115Z,98363.09
2023-05-21T00:54:51.263Z,98369.28
2023-05-21T00:57:23.056Z,98361.22
2023-05-21T00:59:53.301Z,98363.72
2023-05-21T01:02:24.676Z,98359.13
2023-05-21T01:04:56.333Z,98363.31
2023-05-21T01:07:24.017Z,98361.41
2023-05-21T01:09:51.850Z,98360.44
2023-05-21T01:12:21.500Z,98358.84
2023-05-21T01:14:52.808Z,98358.75
2023-05-21T01:17:24.399Z,98351.78
2023-05-21T01:19:54.694Z,98356.75
2023-05-21T01:22:24.965Z,98348.19
2023-05-21T01:24:55.848Z,98361.66
2023-05-21T01:27:23.761Z,98350.31
2023-05-21T01:29:51.128Z,98340.88
2023-05-21T01:32:45.568Z,98344.94
2023-05-21T01:35:35.882Z,98343.16
2023-05-21T01:38:22.236Z,98347.03
2023-05-21T01:40:54.960Z,98343.06
2023-05-21T01:43:24.082Z,98347.03
2023-05-21T01:45:56.289Z,98351.00
2023-05-21T01:48:30.048Z,98351.09
2023-05-21T01:51:04.428Z,98343.25
2023-05-21T01:53:32.457Z,98343.13
2023-05-21T01:56:00.768Z,98335.63
2023-05-21T01:58:28.153Z,98341.66
2023-05-21T02:00:55.611Z,98350.09
2023-05-21T02:03:28.399Z,98350.19
2023-05-21T02:05:56.052Z,98337.28
2023-05-21T02:08:23.826Z,98337.38
2023-05-21T02:10:51.576Z,98340.66
2023-05-21T02:13:25.796Z,98342.09
2023-05-21T02:15:55.059Z,98337.50
2023-05-21T02:18:24.610Z,98348.53
2023-05-21T02:20:52.655Z,98350.53
2023-05-21T02:23:21.260Z,98348.41
2023-05-21T02:25:49.141Z,98345.13
2023-05-21T02:28:16.441Z,98343.31
2023-05-21T02:30:43.695Z,98342.19
2023-05-21T02:33:14.145Z,98341.91
2023-05-21T02:35:43.750Z,98339.09
2023-05-21T02:38:13.590Z,98331.91
2023-05-21T02:40:41.133Z,98336.97
2023-05-21T02:43:08.534Z,98332.69
2023-05-21T02:45:36.707Z,98328.44
2023-05-21T02:48:04.677Z,98332.50
2023-05-21T02:50:36.776Z,98342.22
2023-05-21T02:53:04.368Z,98330.88
2023-05-21T02:55:32.064Z,98335.75
2023-05-21T02:57:59.253Z,98331.78
2023-05-21T03:00:26.587Z,98326.59
2023-05-21T03:02:53.877Z,98327.22
2023-05-21T03:05:21.722Z,98323.56
2023-05-21T03:07:48.970Z,98325.94
2023-05-21T03:10:16.454Z,98320.75
2023-05-21T03:12:43.723Z,98322.59
2023-05-21T03:15:14.963Z,98319.13
2023-05-21T03:18:57.700Z,98316.00
2023-05-21T03:22:40.601Z,98318.91
2023-05-21T03:25:09.279Z,98324.69
2023-05-21T03:28:52.967Z,98318.78
2023-05-21T03:31:21.275Z,98308.97
2023-05-21T03:35:19.588Z,98312.88
2023-05-21T03:39:02.918Z,98316.13
2023-05-21T03:42:47.915Z,98313.91
2023-05-21T03:46:33.581Z,98319.56
2023-05-21T03:50:26.192Z,98317.50
2023-05-21T03:52:54.137Z,98319.72
2023-05-21T03:56:36.891Z,98324.63
2023-05-21T04:00:19.934Z,98330.72
2023-05-21T04:02:48.598Z,98332.94
2023-05-21T04:06:33.290Z,98332.34
2023-05-21T04:10:23.917Z,98342.97
2023-05-21T04:14:07.369Z,98345.38
2023-05-21T04:16:35.592Z,98349.00
2023-05-21T04:19:05.392Z,98356.16
2023-05-21T04:21:32.689Z,98353.88
2023-05-21T04:24:00.956Z,98353.81
2023-05-21T04:26:48.800Z,98361.66
2023-05-21T04:29:18.139Z,98356.69
2023-05-21T04:31:45.744Z,98366.47
2023-05-21T04:34:18.062Z,98371.81
2023-05-21T04:36:46.432Z,98377.63
2023-05-21T04:39:15.785Z,98365.31
2023-05-21T04:41:44.242Z,98369.66
2023-05-21T04:44:14.803Z,98370.78
2023-05-21T04:46:46.071Z,98371.97
2023-05-21T04:49:14.338Z,98378.09
2023-05-21T04:51:42.044Z,98377.41
2023-05-21T04:54:09.838Z,98390.09
2023-05-21T04:56:37.389Z,98379.91
2023-05-21T04:59:06.285Z,98389.50
2023-05-21T05:01:35.382Z,98383.13
2023-05-21T05:04:03.578Z,98385.41
2023-05-21T05:06:31.675Z,98379.69
2023-05-21T05:08:59.172Z,98380.94
2023-05-21T05:11:26.901Z,98379.59
2023-05-21T05:13:55.481Z,98384.44
2023-05-21T05:16:26.072Z,98385.59
2023-05-21T05:18:56.841Z,98397.13
2023-05-21T05:22:40.070Z,98392.38
2023-05-21T05:26:23.451Z,98389.19
2023-05-21T05:30:06.665Z,98382.72
2023-05-21T05:32:34.156Z,98389.06
2023-05-21T05:36:17.595Z,98395.13
2023-05-21T05:40:00.619Z,98394.03
2023-05-21T05:43:46.810Z,98388.25
2023-05-21T05:46:17.141Z,98390.31
2023-05-21T05:48:46.450Z,98388.31
2023-05-21T05:52:30.760Z,98383.50
2023-05-21T05:54:58.696Z,98389.63
2023-05-21T05:57:26.588Z,98392.63
2023-05-21T06:01:13.643Z,98389.91
2023-05-21T06:03:41.716Z,98389.34
2023-05-21T06:07:30.799Z,98393.25
2023-05-21T06:11:17.272Z,98392.88
2023-05-21T06:15:01.912Z,98393.88
2023-05-21T06:18:47.204Z,98398.47
2023-05-21T06:21:14.654Z,98397.00
2023-05-21T06:23:42.557Z,98395.13
2023-05-21T06:26:10.443Z,98396.28
2023-05-21T06:28:37.762Z,98395.94
2023-05-21T06:31:06.546Z,98393.25
2023-05-21T06:33:35.841Z,98393.16
2023-05-21T06:36:03.843Z,98394.75
2023-05-21T06:38:31.456Z,98396.69
2023-05-21T06:41:00.976Z,98397.22
2023-05-21T06:43:47.804Z,98389.72
2023-05-21T06:46:36.339Z,98405.78
2023-05-21T06:49:07.895Z,98394.41
2023-05-21T06:51:36.187Z,98398.31
2023-05-21T06:54:05.148Z,98401.13
2023-05-21T06:56:34.720Z,98409.03
2023-05-21T06:59:02.151Z,98403.69
2023-05-21T07:01:30.652Z,98404.25
2023-05-21T07:03:58.640Z,98407.94
2023-05-21T07:06:26.523Z,98412.38
2023-05-21T07:08:53.843Z,98404.59
2023-05-21T07:11:21.706Z,98404.47
2023-05-21T07:13:49.700Z,98413.31
2023-05-21T07:16:17.880Z,98418.69
2023-05-21T07:18:47.788Z,98417.06
2023-05-21T07:21:15.299Z,98418.63
2023-05-21T07:23:43.101Z,98419.50
2023-05-21T07:26:11.489Z,98417.28
2023-05-21T07:28:39.191Z,98414.38
2023-05-21T07:31:06.505Z,98417.13
2023-05-21T07:33:40.595Z,98420.66
2023-05-21T07:36:09.928Z,98409.13
2023-05-21T07:38:37.994Z,98417.66
2023-05-21T07:41:05.349Z,98413.75
2023-05-21T07:43:32.736Z,98414.81
2023-05-21T07:46:00.472Z,98413.69
2023-05-21T07:48:28.836Z,98406.22
2023-05-21T07:51:04.837Z,98415.09
2023-05-21T07:53:33.326Z,98409.59
2023-05-21T07:56:04.290Z,98410.50
2023-05-21T07:58:35.134Z,98409.50
2023-05-21T08:01:03.169Z,98399.72
2023-05-21T08:03:32.030Z,98404.72
2023-05-21T08:05:59.896Z,98400.00
2023-05-21T08:08:27.392Z,98403.81
2023-05-21T08:10:57.691Z,98400.16
2023-05-21T08:13:27.361Z,98398.50
2023-05-21T08:15:55.497Z,98401.91
2023-05-21T08:18:25.527Z,98400.94
2023-05-21T08:20:56.768Z,98390.34
2023-05-21T08:23:27.301Z,98397.03
2023-05-21T08:25:56.971Z,98394.81
2023-05-21T08:28:25.076Z,98393.13
2023-05-21T08:30:52.865Z,98395.47
2023-05-21T08:33:22.767Z,98399.50
2023-05-21T08:35:50.034Z,98394.16
2023-05-21T08:38:30.482Z,98396.28
2023-05-21T08:41:23.349Z,98382.34
2023-05-21T08:44:00.215Z,98394.91
2023-05-21T08:46:34.829Z,98394.13
2023-05-21T08:49:03.800Z,98385.66
2023-05-21T08:51:32.104Z,98393.16
2023-05-21T08:54:02.071Z,98388.41
2023-05-21T08:56:32.576Z,98397.34
2023-05-21T08:59:01.987Z,98393.38
2023-05-21T09:01:34.638Z,98385.63
2023-05-21T09:04:21.373Z,98397.16
2023-05-21T09:06:52.270Z,98389.69
2023-05-21T09:09:41.315Z,98394.06
2023-05-21T09:12:09.133Z,98393.66
2023-05-21T09:14:38.344Z,98384.31
2023-05-21T09:17:15.949Z,98384.28
2023-05-21T09:20:14.981Z,98385.25
2023-05-21T09:22:51.758Z,98397.25
2023-05-21T09:25:30.272Z,98402.72
2023-05-21T09:28:02.481Z,98395.09
2023-05-21T09:30:31.315Z,98392.59
2023-05-21T09:33:01.509Z,98392.84
2023-05-21T09:35:29.567Z,98396.41
2023-05-21T09:37:57.665Z,98397.25
2023-05-21T09:40:25.333Z,98393.09
2023-05-21T09:42:55.016Z,98395.28
2023-05-21T09:45:26.236Z,98393.06
2023-05-21T09:47:57.094Z,98391.34
2023-05-21T09:50:28.032Z,98395.69
2023-05-21T09:52:58.312Z,98387.22
2023-05-21T09:55:29.097Z,98386.69
2023-05-21T09:57:59.126Z,98383.59
2023-05-21T10:00:29.055Z,98387.28
2023-05-21T10:03:01.430Z,98394.06
2023-05-21T10:05:30.938Z,98389.47
2023-05-21T10:08:04.580Z,98388.25
2023-05-21T10:10:33.277Z,98390.94
2023-05-21T10:13:12.709Z,98382.38
2023-05-21T10:15:48.237Z,98390.94
2023-05-21T10:18:21.382Z,98378.78
2023-05-21T10:20:49.616Z,98380.63
2023-05-21T10:23:19.075Z,98375.75
2023-05-21T10:25:49.232Z,98369.63
2023-05-21T10:28:20.571Z,98376.44
2023-05-21T10:30:48.175Z,98366.41
2023-05-21T10:33:21.562Z,98369.19
2023-05-21T10:35:54.631Z,98367.94
2023-05-21T10:38:22.237Z,98361.00
2023-05-21T10:40:50.224Z,98366.41
2023-05-21T10:43:48.814Z,98355.97
2023-05-21T10:47:01.965Z,98354.56
2023-05-21T10:49:58.992Z,98354.44
2023-05-21T10:52:50.787Z,98351.34
2023-05-21T10:55:58.464Z,98344.41
2023-05-21T10:59:10.327Z,98339.28
2023-05-21T11:01:41.127Z,98344.31
2023-05-21T11:04:08.640Z,98338.19
2023-05-21T11:06:35.879Z,98341.66
2023-05-21T11:09:14.245Z,98339.63
2023-05-21T11:11:54.146Z,98343.56
2023-05-21T11:14:36.613Z,98337.50
2023-05-21T11:17:09.652Z,98342.34
2023-05-21T11:19:54.387Z,98339.94
2023-05-21T11:22:27.612Z,98340.63
2023-05-21T11:25:01.497Z,98337.38
2023-05-21T11:27:39.739Z,98329.19
2023-05-21T11:30:25.486Z,98334.66
2023-05-21T11:33:08.083Z,98326.59
2023-05-21T11:35:54.309Z,98329.91
2023-05-21T11:38:21.748Z,98324.34
2023-05-21T11:40:55.443Z,98324.84
2023-05-21T11:43:23.040Z,98327.75
2023-05-21T11:45:53.399Z,98331.88
2023-05-21T11:48:27.665Z,98334.34
2023-05-21T11:50:57.458Z,98338.66
2023-05-21T11:53:30.742Z,98337.94
2023-05-21T11:55:59.680Z,98333.47
2023-05-21T11:58:31.665Z,98327.31
2023-05-21T12:00:58.999Z,98328.28
2023-05-21T12:03:30.582Z,98328.09
2023-05-21T12:06:06.649Z,98331.31
2023-05-21T12:08:34.552Z,98324.56
2023-05-21T12:11:02.643Z,98333.75
2023-05-21T12:13:30.181Z,98334.22
2023-05-21T12:16:00.069Z,98330.44
2023-05-21T12:18:27.731Z,98329.31
2023-05-21T12:20:55.591Z,98334.13
2023-05-21T12:23:26.723Z,98337.53
2023-05-21T12:25:54.991Z,98325.22
2023-05-21T12:28:24.551Z,98333.59
2023-05-21T12:30:53.401Z,98333.66
2023-05-21T12:33:22.450Z,98329.69
2023-05-21T12:35:52.402Z,98323.97
2023-05-21T12:38:19.911Z,98323.13
2023-05-21T12:40:48.278Z,98327.59
2023-05-21T12:43:15.667Z,98322.66
2023-05-21T12:45:43.801Z,98325.28
2023-05-21T12:48:12.601Z,98318.19
2023-05-21T12:50:40.991Z,98319.66
2023-05-21T12:53:11.301Z,98320.00
2023-05-21T12:55:38.745Z,98321.28
2023-05-21T12:58:08.331Z,98323.69
2023-05-21T13:00:36.892Z,98327.78
2023-05-21T13:03:06.743Z,98319.03
2023-05-21T13:05:35.636Z,98319.59
2023-05-21T13:08:03.604Z,98317.97
2023-05-21T13:10:31.464Z,98333.31
2023-05-21T13:12:58.975Z,98316.22
2023-05-21T13:15:26.298Z,98327.25
2023-05-21T13:17:56.081Z,98318.59
2023-05-21T13:20:27.748Z,98319.66
2023-05-21T13:22:55.824Z,98326.03
2023-05-21T13:25:29.968Z,98326.03
2023-05-21T13:27:58.345Z,98321.63
2023-05-21T13:30:25.991Z,98318.28
2023-05-21T13:32:53.606Z,98307.34
2023-05-21T13:35:21.159Z,98315.63
2023-05-21T13:37:49.524Z,98313.56
2023-05-21T13:40:17.482Z,98312.47
2023-05-21T13:42:48.314Z,98313.44
2023-05-21T13:45:19.719Z,98309.13
2023-05-21T13:47:48.456Z,98314.16
2023-05-21T13:50:21.474Z,98312.16
2023-05-21T13:52:49.124Z,98310.66
2023-05-21T13:55:17.399Z,98324.19
2023-05-21T13:57:46.302Z,98322.56
2023-05-21T14:00:15.914Z,98320.00
2023-05-21T14:02:44.670Z,98317.59
2023-05-21T14:05:13.297Z,98313.09
2023-05-21T14:07:42.247Z,98319.25
2023-05-21T14:10:10.056Z,98313.44
2023-05-21T14:12:38.584Z,98315.56
2023-05-21T14:15:07.771Z,98318.88
2023-05-21T14:17:35.864Z,98316.03
2023-05-21T14:20:04.264Z,98318.44
2023-05-21T14:22:31.881Z,98311.06
2023-05-21T14:24:59.797Z,98312.66
2023-05-21T14:27:27.255Z,98313.50
2023-05-21T14:29:54.664Z,98322.53
2023-05-21T14:32:21.990Z,98307.34
2023-05-21T14:34:49.505Z,98314.09
2023-05-21T14:37:17.499Z,98312.31
2023-05-21T14:39:45.478Z,98312.41
2023-05-21T14:42:12.728Z,98301.78
2023-05-21T14:44:39.976Z,98303.09
2023-05-21T14:47:07.226Z,98294.25
2023-05-21T14:49:34.588Z,98299.91
2023-05-21T14:52:02.100Z,98301.56
2023-05-21T14:54:29.982Z,98304.50
2023-05-21T14:56:57.579Z,98299.06
2023-05-21T14:59:25.010Z,98294.97
2023-05-21T15:01:52.912Z,98300.28
2023-05-21T15:04:20.579Z,98295.31
2023-05-21T15:06:48.603Z,98293.69
2023-05-21T15:09:16.070Z,98295.13
2023-05-21T15:11:46.015Z,98290.38
2023-05-21T15:14:13.536Z,98297.81
2023-05-21T15:16:41.185Z,98299.22
2023-05-21T15:19:08.763Z,98278.53
2023-05-21T15:21:36.442Z,98286.00
2023-05-21T15:24:04.840Z,98280.16
2023-05-21T15:26:32.341Z,98277.06
2023-05-21T15:29:02.989Z,98273.97
2023-05-21T15:31:31.909Z,98276.38
2023-05-21T15:34:00.372Z,98274.66
2023-05-21T15:36:27.865Z,98272.34
2023-05-21T15:38:55.337Z,98277.69
2023-05-21T15:41:22.706Z,98274.81
2023-05-21T15:43:50.026Z,98271.53
2023-05-21T15:46:17.224Z,98269.47
2023-05-21T15:48:44.804Z,98283.06
2023-05-21T15:51:12.028Z,98276.47
2023-05-21T15:53:39.347Z,98270.69
2023-05-21T15:56:08.271Z,98273.47
2023-05-21T15:58:35.862Z,98287.06
2023-05-21T16:01:03.580Z,98273.13
2023-05-21T16:03:31.433Z,98283.75
2023-05-21T16:05:58.976Z,98281.34
2023-05-21T16:08:26.466Z,98284.56
2023-05-21T16:10:53.875Z,98283.03
2023-05-21T16:13:21.732Z,98285.31
2023-05-21T16:15:49.428Z,98279.53
2023-05-21T16:18:16.914Z,98282.38
2023-05-21T16:20:44.741Z,98283.16
2023-05-21T16:23:16.726Z,98281.13
2023-05-21T16:25:44.168Z,98277.03
2023-05-21T16:28:12.319Z,98269.63
2023-05-21T16:30:39.814Z,98274.44
2023-05-21T16:33:07.564Z,98272.09
2023-05-21T16:35:35.154Z,98269.59
2023-05-21T16:38:03.028Z,98271.00
2023-05-21T16:40:31.482Z,98264.88
2023-05-21T16:43:01.909Z,98266.88
2023-05-21T16:45:40.723Z,98267.69
2023-05-21T16:48:09.329Z,98263.25
2023-05-21T16:50:36.720Z,98267.69
2023-05-21T16:53:06.664Z,98270.56
2023-05-21T16:55:37.368Z,98262.84
2023-05-21T16:58:06.708Z,98264.75
2023-05-21T17:00:36.281Z,98266.00
2023-05-21T17:03:03.836Z,98264.38
2023-05-21T17:05:31.209Z,98267.22
2023-05-21T17:07:58.602Z,98264.34
2023-05-21T17:10:25.985Z,98266.00
2023-05-21T17:12:53.819Z,98263.81
2023-05-21T17:15:21.382Z,98256.97
2023-05-21T17:17:48.854Z,98256.53
2023-05-21T17:20:16.722Z,98259.81
2023-05-21T17:22:44.403Z,98258.34
2023-05-21T17:25:12.421Z,98249.75
2023-05-21T17:27:39.738Z,98250.41
2023-05-21T17:30:09.966Z,98257.84
2023-05-21T17:32:37.289Z,98258.09
2023-05-21T17:35:05.055Z,98264.06
2023-05-21T17:37:32.543Z,98263.09
2023-05-21T17:39:59.915Z,98272.19
2023-05-21T17:42:27.252Z,98271.16
2023-05-21T17:44:55.089Z,98270.56
2023-05-21T17:47:23.232Z,98270.78
2023-05-21T17:49:50.847Z,98266.38
2023-05-21T17:52:18.505Z,98267.03
2023-05-21T17:54:46.192Z,98270.19
2023-05-21T17:57:16.093Z,98280.19
2023-05-21T17:59:45.339Z,98271.47
2023-05-21T18:02:13.687Z,98266.91
2023-05-21T18:04:41.227Z,98273.81
2023-05-21T18:07:08.833Z,98279.19
2023-05-21T18:09:36.181Z,98279.28
2023-05-21T18:12:05.830Z,98279.41
2023-05-21T18:14:33.966Z,98276.88
2023-05-21T18:17:03.117Z,98279.44
2023-05-21T18:19:31.336Z,98272.03
2023-05-21T18:21:58.668Z,98273.66
2023-05-21T18:24:26.345Z,98282.03
2023-05-21T18:26:53.895Z,98281.75
2023-05-21T18:29:21.229Z,98276.78
2023-05-21T18:31:48.888Z,98278.00
2023-05-21T18:34:17.469Z,98277.50
2023-05-21T18:36:44.872Z,98285.41
2023-05-21T18:39:12.701Z,98283.25
2023-05-21T18:41:40.092Z,98282.97
2023-05-21T18:44:07.594Z,98275.63
2023-05-21T18:46:36.161Z,98283.72
2023-05-21T18:49:04.983Z,98284.91
2023-05-21T18:54:48.388Z,98288.28
2023-05-21T18:57:20.481Z,98302.56
2023-05-21T18:57:26.812Z,98292.94
2023-05-21T18:59:47.980Z,98299.50
2023-05-21T19:02:17.476Z,98293.50
2023-05-21T19:04:44.928Z,98303.53
2023-05-21T19:07:12.242Z,98310.19
2023-05-21T19:09:39.493Z,98312.06
2023-05-21T19:12:07.240Z,98320.84
2023-05-21T19:14:34.554Z,98319.66
2023-05-21T19:17:02.339Z,98317.41
2023-05-21T19:19:30.349Z,98327.34
2023-05-21T19:21:58.753Z,98325.00
2023-05-21T19:24:26.249Z,98323.88
2023-05-21T19:26:53.641Z,98322.09
2023-05-21T19:29:21.551Z,98328.31
2023-05-21T19:31:48.835Z,98336.03
2023-05-21T19:34:16.272Z,98331.28
2023-05-21T19:36:52.951Z,98325.81
2023-05-21T19:39:21.712Z,98328.50
2023-05-21T19:41:49.476Z,98339.09
2023-05-21T19:44:17.347Z,98333.56
2023-05-21T19:46:44.890Z,98333.25
2023-05-21T19:49:14.084Z,98332.13
2023-05-21T19:51:42.893Z,98341.47
2023-05-21T19:54:10.586Z,98340.72
2023-05-21T19:56:37.928Z,98339.75
2023-05-21T19:59:05.216Z,98344.66
2023-05-21T20:01:35.544Z,98346.16
2023-05-21T20:04:02.970Z,98350.53
2023-05-21T20:06:31.314Z,98347.16
2023-05-21T20:08:58.584Z,98349.38
2023-05-21T20:11:26.236Z,98358.31
2023-05-21T20:13:53.706Z,98353.72
2023-05-21T20:16:27.497Z,98353.81
2023-05-21T20:18:56.896Z,98353.50
2023-05-21T20:21:25.819Z,98359.50
2023-05-21T20:23:54.587Z,98366.50
2023-05-21T20:26:23.105Z,98370.84
2023-05-21T20:28:50.793Z,98365.56
2023-05-21T20:31:18.508Z,98366.31
2023-05-21T20:33:46.350Z,98362.81
2023-05-21T20:36:15.294Z,98357.03
2023-05-21T20:38:42.556Z,98367.22
2023-05-21T20:41:09.878Z,98361.56
2023-05-21T20:43:37.292Z,98367.00
2023-05-21T20:46:05.724Z,98363.16
2023-05-21T20:48:33.833Z,98366.66
2023-05-21T20:51:05.808Z,98367.19
2023-05-21T20:53:33.746Z,98361.38
2023-05-21T20:56:01.519Z,98361.31
2023-05-21T20:58:29.654Z,98363.81
2023-05-21T21:00:56.994Z,98369.22
2023-05-21T21:03:24.361Z,98373.34
2023-05-21T21:05:53.057Z,98371.66
2023-05-21T21:08:20.509Z,98377.97
2023-05-21T21:10:48.258Z,98377.84
2023-05-21T21:13:15.860Z,98381.34
2023-05-21T21:15:43.907Z,98379.47
2023-05-21T21:18:14.749Z,98378.66
2023-05-21T21:20:43.249Z,98382.94
2023-05-21T21:23:16.708Z,98391.44
2023-05-21T21:25:44.596Z,98390.94
2023-05-21T21:28:12.020Z,98395.72
2023-05-21T21:30:41.160Z,98386.03
2023-05-21T21:33:09.048Z,98390.28
2023-05-21T21:35:36.453Z,98387.47
2023-05-21T21:38:05.078Z,98384.44
2023-05-21T21:40:32.737Z,98382.28
2023-05-21T21:43:00.434Z,98383.50
2023-05-21T21:45:28.323Z,98383.56
2023-05-21T21:47:55.987Z,98386.22
2023-05-21T21:50:23.351Z,98393.16
2023-05-21T21:52:51.097Z,98393.81
2023-05-21T21:55:19.109Z,98386.38
2023-05-21T21:57:46.504Z,98402.53
2023-05-21T22:00:18.892Z,98397.59
2023-05-21T22:02:47.713Z,98395.72
2023-05-21T22:05:22.005Z,98396.97
2023-05-21T22:07:51.581Z,98396.25
2023-05-21T22:10:24.866Z,98392.22
2023-05-21T22:12:52.333Z,98390.28
2023-05-21T22:15:28.616Z,98387.59
2023-05-21T22:17:56.845Z,98391.47
2023-05-21T22:20:29.402Z,98396.66
2023-05-21T22:22:58.183Z,98400.41
2023-05-21T22:25:26.632Z,98393.75
2023-05-21T22:27:54.881Z,98392.94
2023-05-21T22:30:22.730Z,98393.41
2023-05-21T22:32:50.089Z,98395.31
2023-05-21T22:35:17.364Z,98398.41
2023-05-21T22:37:44.815Z,98393.59
2023-05-21T22:40:13.884Z,98400.31
2023-05-21T22:42:41.562Z,98403.13
2023-05-21T22:45:09.974Z,98403.31
2023-05-21T22:47:39.465Z,98401.44
2023-05-21T22:50:08.333Z,98395.84
2023-05-21T22:52:37.033Z,98398.53
2023-05-21T22:55:06.429Z,98402.69
2023-05-21T22:57:33.906Z,98402.59
2023-05-21T23:00:01.251Z,98402.09
2023-05-21T23:02:29.288Z,98405.53
2023-05-21T23:04:58.299Z,98398.97
2023-05-21T23:07:25.865Z,98399.06
2023-05-21T23:09:53.338Z,98397.06
2023-05-21T23:12:21.389Z,98402.50
2023-05-21T23:14:50.358Z,98415.19
2023-05-21T23:17:17.620Z,98394.84
2023-05-21T23:19:44.794Z,98399.00
2023-05-21T23:22:12.449Z,98403.78
2023-05-21T23:24:40.183Z,98400.97
2023-05-21T23:27:07.877Z,98402.22
2023-05-21T23:29:35.380Z,98406.94
2023-05-21T23:32:05.137Z,98408.69
2023-05-21T23:34:32.716Z,98409.88
2023-05-21T23:37:00.601Z,98409.31
2023-05-21T23:39:28.830Z,98405.31
2023-05-21T23:41:56.633Z,98401.91
2023-05-21T23:44:23.880Z,98404.25
2023-05-21T23:46:51.277Z,98404.09
2023-05-21T23:49:18.699Z,98401.59
2023-05-21T23:51:46.818Z,98402.88
2023-05-21T23:54:16.947Z,98398.16
2023-05-21T23:56:44.384Z,98393.53
2023-05-21T23:59:11.911Z,98391.91
